100LL.CA
Aviation Fuel Pricing for Canadians
Please upgrade your browser - Tested with IE9, FireFox, Chrome, Safari

Fuel Prices Airport Info Airport List METAR / TAF Kneeboard RSS

Reference Airport: Langley Regional, BC
N 49 06 03   W 122 37 51

Enter a list of
Airport Idents:
Sort Method: As Entered    By Ident   

CYVR
METAR CYVR 271800Z 11013G19KT 30SM OVC022 18/12 A3012 RMK SC8 SLP201 DENSITY ALT 200FT
TAF CYVR 271738Z 2718/2824 12012KT P6SM BKN020 BECMG 2719/2721 FEW030 FM280000 16008KT P6SM SKC BECMG 2806/2808 10008KT FM281000 10008KT P6SM FEW020 FM281800 22008KT P6SM FEW120 RMK NXT FCST BY 272100Z
CYXX
METAR CYXX 271800Z 20012KT 30SM SCT021 SCT100 19/13 A3013 RMK CU3AC1 SLP205 DENSITY ALT 500FT
TAF CYXX 271738Z 2718/2818 20012KT P6SM FEW030 SCT100 FM280600 VRB03KT P6SM SKC RMK NXT FCST BY 280000Z
KBLI
METAR KBLI 271753Z 16013G20KT 10SM BKN018 17/12 A3014 RMK AO2 SLP212 T01670117 10167 20139 51011
TAF KBLI 271805Z 2718/2818 17012G18KT P6SM SCT020 BKN060 TEMPO 2718/2720 BKN020 BKN060 FM272000 18010KT P6SM SCT060 FM280100 17008KT P6SM SKC